Wetterdaten: Woche 09.08.10 - 15.08.10 (KW32)
Datum Zeit Temp. A. Feuchte A. Luftdruck Regen Wind Richtung Taupunkt Windchill Windben
09.08.2010 00:00 13,4 C 90 % 1017,6 hPa 0,0 l/m 0,0 km/h O-SO 11,8 C 13,4 C 0,0 km/h
09.08.2010 01:00 12,4 C 91 % 1017,5 hPa 0,0 l/m 0,0 km/h NO 11,0 C 12,4 C 0,0 km/h
09.08.2010 02:00 12,1 C 92 % 1017,4 hPa 0,0 l/m 0,0 km/h S-SO 10,8 C 12,1 C 0,0 km/h
09.08.2010 03:00 11,8 C 93 % 1017,3 hPa 0,0 l/m 0,0 km/h O-NO 10,7 C 11,8 C 0,0 km/h
09.08.2010 04:00 11,3 C 93 % 1017,4 hPa 0,0 l/m 0,0 km/h O-NO 10,2 C 11,3 C 0,0 km/h
09.08.2010 05:00 10,9 C 93 % 1017,2 hPa 0,0 l/m 0,0 km/h O-NO 9,8 C 10,9 C 0,0 km/h
09.08.2010 06:00 10,7 C 93 % 1017,4 hPa 0,0 l/m 0,0 km/h SO 9,6 C 10,7 C 0,0 km/h
09.08.2010 07:00 11,7 C 94 % 1017,4 hPa 0,0 l/m 3,9 km/h SO 10,8 C 11,7 C 2,2 km/h
09.08.2010 08:00 18,9 C 82 % 1017,1 hPa 0,0 l/m 6,5 km/h NW 15,8 C 18,9 C 3,6 km/h
09.08.2010 09:00 23,9 C 61 % 1017,1 hPa 0,0 l/m 0,0 km/h W-SW 15,9 C 23,9 C 0,0 km/h
09.08.2010 10:00 26,4 C 52 % 1017,0 hPa 0,0 l/m 0,0 km/h W-NW 15,7 C 26,4 C 0,0 km/h
09.08.2010 11:00 26,8 C 50 % 1016,6 hPa 0,0 l/m 0,0 km/h O-NO 15,5 C 26,8 C 0,0 km/h
09.08.2010 12:00 26,9 C 46 % 1016,2 hPa 0,0 l/m 0,0 km/h W-SW 14,3 C 26,9 C 0,0 km/h
09.08.2010 13:00 27,4 C 44 % 1015,6 hPa 0,0 l/m 20,1 km/h NO 14,0 C 25,8 C 11,2 km/h
09.08.2010 14:00 27,9 C 39 % 1015,0 hPa 0,0 l/m 7,1 km/h W-NW 12,6 C 27,8 C 4,0 km/h
09.08.2010 15:00 30,4 C 36 % 1014,4 hPa 0,0 l/m 0,0 km/h W 13,6 C 30,4 C 0,0 km/h
09.08.2010 16:00 32,2 C 32 % 1014,2 hPa 0,0 l/m 0,0 km/h W-NW 13,4 C 32,2 C 0,0 km/h
09.08.2010 17:00 32,8 C 30 % 1014,2 hPa 0,0 l/m 7,1 km/h W 12,9 C 32,8 C 4,0 km/h
09.08.2010 18:00 32,5 C 32 % 1014,1 hPa 0,0 l/m 0,0 km/h N-NO 13,6 C 32,5 C 0,0 km/h
09.08.2010 19:00 29,6 C 36 % 1013,9 hPa 0,0 l/m 0,0 km/h O-NO 12,9 C 29,6 C 0,0 km/h
09.08.2010 20:00 21,2 C 56 % 1013,8 hPa 0,0 l/m 0,0 km/h NO 12,1 C 21,2 C 0,0 km/h
09.08.2010 21:00 17,8 C 70 % 1014,5 hPa 0,0 l/m 0,0 km/h O-SO 12,3 C 17,8 C 0,0 km/h
09.08.2010 22:00 15,9 C 76 % 1014,8 hPa 0,0 l/m 0,0 km/h SO 11,7 C 15,9 C 0,0 km/h
09.08.2010 23:00 15,2 C 82 % 1015,1 hPa 0,0 l/m 5,2 km/h SO 12,1 C 15,2 C 2,9 km/h
10.08.2010 00:00 15,1 C 82 % 1015,2 hPa 0,0 l/m 5,8 km/h SO 12,0 C 15,1 C 3,2 km/h
10.08.2010 01:00 14,3 C 83 % 1015,3 hPa 0,0 l/m 0,0 km/h NO 11,5 C 14,3 C 0,0 km/h
10.08.2010 02:00 13,4 C 87 % 1015,2 hPa 0,0 l/m 0,0 km/h O-NO 11,3 C 13,4 C 0,0 km/h
10.08.2010 03:00 12,9 C 88 % 1015,3 hPa 0,0 l/m 0,0 km/h NO 11,0 C 12,9 C 0,0 km/h
10.08.2010 04:00 12,0 C 89 % 1015,3 hPa 0,0 l/m 0,0 km/h NO 10,2 C 12,0 C 0,0 km/h
10.08.2010 05:00 11,5 C 91 % 1015,4 hPa 0,0 l/m 0,0 km/h O-NO 10,1 C 11,5 C 0,0 km/h
10.08.2010 06:00 11,5 C 91 % 1015,4 hPa 0,0 l/m 0,0 km/h NO 10,1 C 11,5 C 0,0 km/h
10.08.2010 07:00 12,8 C 92 % 1015,4 hPa 0,0 l/m 0,0 km/h SO 11,5 C 12,8 C 0,0 km/h
10.08.2010 08:00 19,7 C 76 % 1015,5 hPa 0,0 l/m 0,0 km/h N-NO 15,3 C 19,7 C 0,0 km/h
10.08.2010 09:00 26,1 C 57 % 1015,4 hPa 0,0 l/m 3,9 km/h NW 16,9 C 26,1 C 2,2 km/h
10.08.2010 10:00 28,5 C 46 % 1015,5 hPa 0,0 l/m 0,6 km/h W 15,7 C 28,5 C 0,4 km/h
10.08.2010 11:00 30,4 C 44 % 1015,1 hPa 0,0 l/m 2,6 km/h O-SO 16,7 C 30,4 C 1,4 km/h
10.08.2010 12:00 29,8 C 41 % 1014,8 hPa 0,0 l/m 0,0 km/h SW 15,1 C 29,8 C 0,0 km/h
10.08.2010 13:00 30,5 C 34 % 1014,4 hPa 0,0 l/m 23,3 km/h NW 12,8 C 29,7 C 13,0 km/h
10.08.2010 14:00 30,5 C 32 % 1013,9 hPa 0,0 l/m 8,4 km/h W 11,9 C 30,3 C 4,7 km/h
10.08.2010 15:00 31,9 C 29 % 1013,7 hPa 0,0 l/m 4,5 km/h W-SW 11,6 C 31,9 C 2,5 km/h
10.08.2010 16:00 30,2 C 34 % 1013,4 hPa 0,0 l/m 1,9 km/h N 12,6 C 30,2 C 1,1 km/h
10.08.2010 17:00 34,8 C 28 % 1013,0 hPa 0,0 l/m 3,2 km/h W 13,6 C 34,8 C 1,8 km/h
10.08.2010 18:00 26,4 C 41 % 1012,7 hPa 0,0 l/m 0,0 km/h SO 12,1 C 26,4 C 0,0 km/h
10.08.2010 19:00 32,0 C 40 % 1012,7 hPa 0,0 l/m 0,0 km/h O-NO 16,7 C 32,0 C 0,0 km/h
10.08.2010 20:00 22,5 C 60 % 1012,7 hPa 0,0 l/m 0,0 km/h O-SO 14,3 C 22,5 C 0,0 km/h
10.08.2010 21:00 19,8 C 69 % 1013,2 hPa 0,0 l/m 0,0 km/h SO 13,9 C 19,8 C 0,0 km/h
10.08.2010 22:00 18,9 C 72 % 1013,3 hPa 0,0 l/m 1,9 km/h SO 13,7 C 18,9 C 1,1 km/h
10.08.2010 23:00 18,3 C 75 % 1013,6 hPa 0,0 l/m 1,9 km/h SO 13,8 C 18,3 C 1,1 km/h
11.08.2010 00:00 18,1 C 76 % 1013,7 hPa 0,0 l/m 0,0 km/h SO 13,8 C 18,1 C 0,0 km/h
11.08.2010 01:00 17,5 C 78 % 1013,6 hPa 0,0 l/m 5,8 km/h O-SO 13,6 C 17,5 C 3,2 km/h
11.08.2010 02:00 17,3 C 79 % 1013,2 hPa 0,0 l/m 0,0 km/h SO 13,6 C 17,3 C 0,0 km/h
11.08.2010 03:00 16,4 C 80 % 1013,1 hPa 0,0 l/m 0,0 km/h NO 12,9 C 16,4 C 0,0 km/h
11.08.2010 04:00 15,6 C 84 % 1013,3 hPa 0,0 l/m 0,0 km/h NO 12,9 C 15,6 C 0,0 km/h
11.08.2010 05:00 15,1 C 86 % 1013,5 hPa 0,0 l/m 0,0 km/h SO 12,8 C 15,1 C 0,0 km/h
11.08.2010 06:00 15,6 C 86 % 1014,0 hPa 0,0 l/m 0,0 km/h O-SO 13,3 C 15,6 C 0,0 km/h
11.08.2010 07:00 16,3 C 85 % 1014,3 hPa 0,0 l/m 0,0 km/h SO 13,8 C 16,3 C 0,0 km/h
11.08.2010 08:00 20,8 C 76 % 1014,5 hPa 0,0 l/m 9,1 km/h NO 16,4 C 19,8 C 5,0 km/h
11.08.2010 09:00 21,4 C 72 % 1014,5 hPa 0,0 l/m 0,0 km/h W 16,1 C 21,4 C 0,0 km/h
11.08.2010 10:00 26,4 C 59 % 1014,4 hPa 0,0 l/m 0,0 km/h W 17,7 C 26,4 C 0,0 km/h
11.08.2010 11:00 25,9 C 56 % 1014,5 hPa 0,0 l/m 9,7 km/h S 16,4 C 25,2 C 5,4 km/h
11.08.2010 12:00 26,8 C 54 % 1014,5 hPa 0,0 l/m 23,3 km/h W-NW 16,7 C 24,7 C 13,0 km/h
11.08.2010 13:00 28,3 C 47 % 1014,2 hPa 0,0 l/m 5,8 km/h W 15,9 C 28,3 C 3,2 km/h
11.08.2010 14:00 28,3 C 47 % 1013,7 hPa 0,0 l/m 14,3 km/h W 15,9 C 27,4 C 7,9 km/h
11.08.2010 15:00 29,2 C 40 % 1013,3 hPa 0,0 l/m 3,2 km/h SW 14,2 C 29,2 C 1,8 km/h
11.08.2010 16:00 29,9 C 39 % 1013,1 hPa 0,0 l/m 7,8 km/h SW 14,4 C 29,8 C 4,3 km/h
11.08.2010 17:00 29,4 C 39 % 1012,7 hPa 0,0 l/m 7,1 km/h W 14,0 C 29,3 C 4,0 km/h
11.08.2010 18:00 25,9 C 48 % 1012,4 hPa 0,0 l/m 0,0 km/h W-SW 14,0 C 25,9 C 0,0 km/h
11.08.2010 19:00 24,3 C 59 % 1012,4 hPa 0,0 l/m 0,0 km/h S 15,8 C 24,3 C 0,0 km/h
11.08.2010 20:00 22,7 C 65 % 1012,4 hPa 0,0 l/m 0,0 km/h W-SW 15,8 C 22,7 C 0,0 km/h
11.08.2010 21:00 21,1 C 66 % 1012,9 hPa 0,0 l/m 0,0 km/h N-NO 14,5 C 21,1 C 0,0 km/h
11.08.2010 22:00 19,8 C 75 % 1012,8 hPa 0,0 l/m 0,0 km/h O-NO 15,2 C 19,8 C 0,0 km/h
11.08.2010 23:00 19,6 C 75 % 1012,7 hPa 0,0 l/m 0,0 km/h NO 15,0 C 19,6 C 0,0 km/h
12.08.2010 00:00 18,9 C 80 % 1012,6 hPa 0,0 l/m 0,0 km/h N-NO 15,4 C 18,9 C 0,0 km/h
12.08.2010 01:00 18,5 C 82 % 1012,4 hPa 0,0 l/m 0,0 km/h W-NW 15,4 C 18,5 C 0,0 km/h
12.08.2010 02:00 18,4 C 82 % 1012,2 hPa 0,0 l/m 0,0 km/h SO 15,3 C 18,4 C 0,0 km/h
12.08.2010 03:00 17,4 C 89 % 1012,1 hPa 0,4 l/m 2,6 km/h SO 15,6 C 17,4 C 1,4 km/h
12.08.2010 04:00 16,8 C 91 % 1011,5 hPa 1,1 l/m 0,0 km/h SO 15,3 C 16,8 C 0,0 km/h
12.08.2010 05:00 16,5 C 91 % 1010,8 hPa 0,0 l/m 0,0 km/h O-SO 15,0 C 16,5 C 0,0 km/h
12.08.2010 06:00 16,6 C 91 % 1010,9 hPa 0,0 l/m 0,0 km/h SO 15,1 C 16,6 C 0,0 km/h
12.08.2010 07:00 17,0 C 92 % 1010,9 hPa 0,0 l/m 0,0 km/h SO 15,7 C 17,0 C 0,0 km/h
12.08.2010 08:00 17,3 C 91 % 1011,2 hPa 0,4 l/m 0,0 km/h SO 15,8 C 17,3 C 0,0 km/h
12.08.2010 09:00 17,4 C 92 % 1011,3 hPa 0,4 l/m 0,0 km/h W-NW 16,1 C 17,4 C 0,0 km/h
12.08.2010 10:00 18,3 C 90 % 1011,3 hPa 0,7 l/m 0,0 km/h W 16,6 C 18,3 C 0,0 km/h
12.08.2010 11:00 17,8 C 91 % 1011,6 hPa 0,0 l/m 0,0 km/h W-SW 16,3 C 17,8 C 0,0 km/h
12.08.2010 12:00 18,0 C 92 % 1012,1 hPa 3,9 l/m 9,1 km/h S-SW 16,7 C 16,8 C 5,0 km/h
12.08.2010 13:00 21,9 C 81 % 1012,2 hPa 0,4 l/m 12,3 km/h W-SW 18,5 C 20,1 C 6,8 km/h
12.08.2010 14:00 24,8 C 67 % 1012,2 hPa 0,4 l/m 9,1 km/h SW 18,2 C 24,1 C 5,0 km/h
12.08.2010 15:00 20,8 C 74 % 1012,8 hPa 0,0 l/m 26,6 km/h S-SO 16,0 C 16,3 C 14,8 km/h
12.08.2010 16:00 23,9 C 67 % 1012,9 hPa 0,4 l/m 5,2 km/h S-SO 17,4 C 23,9 C 2,9 km/h
12.08.2010 17:00 29,6 C 49 % 1012,8 hPa 0,0 l/m 20,7 km/h S-SO 17,7 C 28,6 C 11,5 km/h
12.08.2010 18:00 30,8 C 44 % 1012,8 hPa 0,0 l/m 1,9 km/h O-NO 17,1 C 30,8 C 1,1 km/h
12.08.2010 19:00 22,8 C 63 % 1012,7 hPa 0,0 l/m 0,0 km/h S-SO 15,4 C 22,8 C 0,0 km/h
12.08.2010 20:00 19,3 C 77 % 1013,6 hPa 0,0 l/m 0,0 km/h O 15,2 C 19,3 C 0,0 km/h
12.08.2010 21:00 17,6 C 84 % 1014,5 hPa 0,0 l/m 0,0 km/h SO 14,9 C 17,6 C 0,0 km/h
12.08.2010 22:00 16,6 C 87 % 1014,8 hPa 0,0 l/m 3,9 km/h SO 14,4 C 16,6 C 2,2 km/h
12.08.2010 23:00 15,6 C 90 % 1015,1 hPa 0,0 l/m 0,0 km/h O-SO 14,0 C 15,6 C 0,0 km/h
13.08.2010 00:00 15,2 C 91 % 1015,2 hPa 0,0 l/m 0,0 km/h O-SO 13,7 C 15,2 C 0,0 km/h
13.08.2010 01:00 14,4 C 92 % 1015,2 hPa 0,0 l/m 1,9 km/h SO 13,1 C 14,4 C 1,1 km/h
13.08.2010 02:00 13,9 C 93 % 1015,0 hPa 0,0 l/m 0,0 km/h SO 12,8 C 13,9 C 0,0 km/h
13.08.2010 03:00 13,7 C 93 % 1015,1 hPa 0,0 l/m 0,0 km/h SO 12,6 C 13,7 C 0,0 km/h
13.08.2010 04:00 13,1 C 93 % 1015,0 hPa 0,0 l/m 0,0 km/h SO 12,0 C 13,1 C 0,0 km/h
13.08.2010 05:00 12,8 C 94 % 1015,0 hPa 0,0 l/m 1,9 km/h NO 11,9 C 12,8 C 1,1 km/h
13.08.2010 06:00 12,1 C 94 % 1014,9 hPa 0,0 l/m 0,0 km/h NO 11,2 C 12,1 C 0,0 km/h
13.08.2010 07:00 12,1 C 94 % 1015,0 hPa 0,0 l/m 0,0 km/h O-NO 11,2 C 12,1 C 0,0 km/h
13.08.2010 08:00 17,1 C 92 % 1015,3 hPa 0,0 l/m 0,0 km/h SO 15,8 C 17,1 C 0,0 km/h
13.08.2010 09:00 20,9 C 71 % 1015,4 hPa 0,0 l/m 0,0 km/h O-NO 15,4 C 20,9 C 0,0 km/h
13.08.2010 10:00 24,6 C 54 % 1015,4 hPa 0,0 l/m 0,0 km/h W 14,7 C 24,6 C 0,0 km/h
13.08.2010 11:00 26,2 C 50 % 1014,9 hPa 0,0 l/m 0,0 km/h N 14,9 C 26,2 C 0,0 km/h
Min-Datum _ 09.08.10 10.08.10 12.08.10 - 09.08.10 - 09.08.10 09.08.10 09.08.10
_ Min-Zeit 06:30 17:30 05:30 - 00:30 - 06:30 06:30 00:30
Minimum _ 10,7 C 28 % 1010,8 hPa - 0,0 km/h - 9,6 C 10,7 C 0,0 km/h
Max-Datum _ 10.08.10 09.08.10 09.08.10 12.08.10 12.08.10 - 12.08.10 10.08.10 12.08.10
_ Max-Zeit 17:30 07:30 00:30 12:30 15:30 - 13:30 17:30 15:30
Maximum _ 34,8 C 94 % 1017,6 hPa 3,9 l/m 26,6 km/h
S-SO
- 18,5 C 34,8 C 14,8 km/h
S-SO
Durchschnitt _ 20,7 C 70 % 1014,2 hPa #7,8 l/m 2,7 km/h SO 14,0 C 20,5 C 1,5 km/h